Time;durP1;ratioP1;P1;durP2;ratioP2;P2;SDS_P1;SDS_P2;PMS_P1;PMS_P2;Temp;Humidity;BMP_temperature;BMP_pressure;BME280_temperature;BME280_humidity;BME280_pressure;Samples;Min_cycle;Max_cycle;Signal;HPM_P1;HPM_P2
2022/04/30 00:00:16;;;;;;;8.70;7.90;;;;;;;8.21;100.00;96720.00;5030269;28;105362;-62
2022/04/30 00:02:43;;;;;;;7.97;7.27;;;;;;;8.32;100.00;96726.34;5033053;28;105488;-62
2022/04/30 00:05:11;;;;;;;8.43;7.63;;;;;;;8.27;100.00;96710.34;5029858;28;104840;-62
2022/04/30 00:07:39;;;;;;;8.23;7.43;;;;;;;8.30;100.00;96718.63;5029596;28;105693;-63
2022/04/30 00:10:08;;;;;;;8.50;7.70;;;;;;;8.12;100.00;96718.69;5030011;28;101875;-63
2022/04/30 00:12:39;;;;;;;9.00;8.20;;;;;;;8.22;100.00;96715.50;5030022;28;105228;-63
2022/04/30 00:15:08;;;;;;;8.13;7.43;;;;;;;7.71;100.00;96718.69;5029148;28;105637;-62
2022/04/30 00:17:35;;;;;;;7.50;6.80;;;;;;;7.68;100.00;96710.38;5031115;28;101830;-62
2022/04/30 00:20:05;;;;;;;8.00;7.30;;;;;;;7.63;100.00;96712.88;5028783;27;105272;-63
2022/04/30 00:22:32;;;;;;;7.43;6.83;;;;;;;7.67;100.00;96712.22;5029093;28;105522;-62
2022/04/30 00:24:59;;;;;;;7.80;7.10;;;;;;;7.79;100.00;96717.56;5033290;28;101854;-62
2022/04/30 00:27:26;;;;;;;7.90;7.20;;;;;;;7.80;100.00;96714.66;5028570;28;105390;-63
2022/04/30 00:29:58;;;;;;;7.70;7.00;;;;;;;7.69;100.00;96712.78;5028667;28;101999;-63
2022/04/30 00:32:25;;;;;;;7.70;7.00;;;;;;;7.74;100.00;96709.47;5029777;28;105133;-63
2022/04/30 00:34:53;;;;;;;7.50;6.53;;;;;;;7.43;100.00;96704.38;5028940;28;105629;-62
2022/04/30 00:37:21;;;;;;;7.20;6.53;;;;;;;7.17;100.00;96704.69;5029636;28;101957;-62
2022/04/30 00:39:48;;;;;;;6.77;6.17;;;;;;;7.07;100.00;96709.69;5029555;28;105365;-62
2022/04/30 00:42:16;;;;;;;7.27;6.60;;;;;;;7.29;100.00;96705.56;5028887;28;105789;-62
2022/04/30 00:44:47;;;;;;;7.40;6.80;;;;;;;7.32;100.00;96713.88;5030806;28;101828;-63
2022/04/30 00:47:18;;;;;;;9.43;7.30;;;;;;;7.42;100.00;96708.06;5032035;28;105380;-63
2022/04/30 00:49:46;;;;;;;9.00;8.10;;;;;;;7.49;100.00;96701.66;5029471;28;101859;-62
2022/04/30 00:52:16;;;;;;;7.90;7.20;;;;;;;7.50;100.00;96705.09;5029494;28;105325;-62
2022/04/30 00:54:49;;;;;;;7.43;6.73;;;;;;;7.54;100.00;96708.94;5028792;28;105217;-62
2022/04/30 00:57:20;;;;;;;8.70;7.80;;;;;;;7.65;100.00;96708.16;5029222;28;101923;-62
2022/04/30 00:59:52;;;;;;;9.93;8.70;;;;;;;7.63;100.00;96710.25;5030416;28;102785;-63
2022/04/30 01:02:22;;;;;;;8.60;7.67;;;;;;;7.63;100.00;96704.94;5028797;28;105787;-62
2022/04/30 01:05:16;;;;;;;7.60;7.00;;;;;;;7.06;100.00;96703.63;5005905;28;102030;-63
2022/04/30 01:07:45;;;;;;;7.43;6.60;;;;;;;7.24;100.00;96705.41;5031983;28;105416;-63
2022/04/30 01:10:12;;;;;;;7.90;7.20;;;;;;;7.29;100.00;96716.16;5029086;28;101803;-63
2022/04/30 01:12:40;;;;;;;9.83;8.77;;;;;;;7.42;100.00;96708.84;5029319;28;105872;-63
2022/04/30 01:15:09;;;;;;;8.10;7.40;;;;;;;7.36;100.00;96708.97;5029772;28;103209;-63
2022/04/30 01:17:39;;;;;;;10.60;9.60;;;;;;;7.45;100.00;96702.31;5029218;28;101879;-63
2022/04/30 01:20:09;;;;;;;9.20;8.30;;;;;;;7.51;100.00;96702.25;5028372;28;105588;-63
2022/04/30 01:22:42;;;;;;;8.50;7.70;;;;;;;7.40;100.00;96703.00;5029518;28;102855;-63
2022/04/30 01:25:15;;;;;;;8.57;7.77;;;;;;;7.41;100.00;96696.66;5028725;28;102389;-62
2022/04/30 01:27:44;;;;;;;7.40;6.80;;;;;;;7.35;100.00;96696.75;5028762;28;105520;-63
2022/04/30 01:30:13;;;;;;;8.30;7.30;;;;;;;7.08;100.00;96690.16;5031604;28;104134;-62
2022/04/30 01:38:12;;;;;;;8.07;7.27;;;;;;;6.76;100.00;96680.75;5028917;28;101914;-62
2022/04/30 01:40:41;;;;;;;7.20;6.60;;;;;;;6.71;100.00;96677.97;5028331;28;106098;-62
2022/04/30 01:43:09;;;;;;;7.57;6.90;;;;;;;6.71;100.00;96681.41;5028149;28;105575;-63
2022/04/30 01:45:37;;;;;;;7.53;6.93;;;;;;;6.68;100.00;96681.03;5028642;28;101902;-62
2022/04/30 01:48:06;;;;;;;7.93;7.23;;;;;;;6.49;100.00;96668.84;5030113;28;103031;-63
2022/04/30 01:50:34;;;;;;;6.97;6.37;;;;;;;6.47;100.00;96670.88;5027677;28;105913;-63
2022/04/30 01:53:02;;;;;;;7.87;7.27;;;;;;;6.28;100.00;96670.03;5031991;28;101975;-63
2022/04/30 01:55:30;;;;;;;7.87;7.17;;;;;;;6.38;100.00;96672.19;5027952;28;105525;-63
2022/04/30 01:58:04;;;;;;;7.43;6.80;;;;;;;6.53;100.00;96672.66;5028522;28;101880;-62
2022/04/30 02:00:32;;;;;;;7.17;6.57;;;;;;;6.56;100.00;96672.22;5028567;28;105208;-63
2022/04/30 02:03:05;;;;;;;7.37;6.57;;;;;;;6.46;100.00;96669.25;5029398;27;102098;-63
2022/04/30 02:05:34;;;;;;;8.03;7.00;;;;;;;6.30;100.00;96667.19;5028369;28;102150;-63
2022/04/30 02:08:07;;;;;;;8.27;6.73;;;;;;;6.31;100.00;96663.50;5029853;27;102739;-62
2022/04/30 02:10:37;;;;;;;7.57;6.77;;;;;;;6.30;100.00;96659.25;5027714;28;105548;-63
2022/04/30 02:13:08;;;;;;;9.40;7.73;;;;;;;6.33;100.00;96664.13;5028460;28;101883;-63
2022/04/30 02:15:36;;;;;;;7.30;6.60;;;;;;;6.21;100.00;96665.84;5031238;28;105664;-62
2022/04/30 02:18:06;;;;;;;7.67;6.97;;;;;;;6.24;100.00;96663.59;5029496;28;101901;-62
2022/04/30 02:20:38;;;;;;;7.27;6.57;;;;;;;6.39;100.00;96660.59;5027237;27;105178;-62
2022/04/30 02:23:08;;;;;;;7.90;7.20;;;;;;;6.36;100.00;96651.28;5029221;28;103020;-63
2022/04/30 02:25:36;;;;;;;7.17;6.47;;;;;;;6.35;100.00;96646.22;5028267;28;101875;-63
2022/04/30 02:28:08;;;;;;;7.90;7.20;;;;;;;6.25;100.00;96646.72;5028275;28;105331;-63
2022/04/30 02:30:37;;;;;;;7.90;7.10;;;;;;;6.14;100.00;96644.78;5029362;27;102768;-63
2022/04/30 02:33:07;;;;;;;7.90;7.20;;;;;;;6.28;100.00;96638.34;5027965;28;101877;-62
2022/04/30 02:35:35;;;;;;;8.77;7.60;;;;;;;6.24;100.00;96644.28;5028144;27;103915;-63
2022/04/30 02:38:05;;;;;;;8.50;7.60;;;;;;;6.08;100.00;96640.38;5030978;28;105723;-63
2022/04/30 02:40:34;;;;;;;8.77;7.13;;;;;;;5.84;100.00;96635.88;5029704;28;102917;-63
2022/04/30 02:43:06;;;;;;;7.60;6.80;;;;;;;5.77;100.00;96631.63;4978135;27;102931;-62
2022/04/30 02:45:35;;;;;;;7.90;7.20;;;;;;;5.87;100.00;96637.28;5028206;28;101822;-63
2022/04/30 02:48:03;;;;;;;7.67;6.97;;;;;;;5.80;100.00;96633.88;5027852;28;105336;-63
2022/04/30 02:50:31;;;;;;;9.00;8.10;;;;;;;5.76;100.00;96628.19;5028566;28;104366;-63
2022/04/30 02:52:58;;;;;;;9.57;8.47;;;;;;;5.80;100.00;96626.78;5029293;27;101777;-63
2022/04/30 02:55:26;;;;;;;8.37;7.57;;;;;;;5.76;100.00;96632.66;5031495;28;104103;-63
2022/04/30 03:00:42;;;;;;;9.40;7.93;;;;;;;5.82;100.00;96629.19;5034495;28;101727;-63
2022/04/30 03:03:40;;;;;;;8.30;7.60;;;;;;;5.80;100.00;96625.97;5030511;28;105424;-63
2022/04/30 03:06:09;;;;;;;8.67;7.83;;;;;;;5.80;100.00;96620.69;5031223;28;102232;-63
2022/04/30 03:08:37;;;;;;;8.00;7.30;;;;;;;5.64;100.00;96614.09;5030649;28;105556;-63
2022/04/30 03:11:05;;;;;;;8.77;7.90;;;;;;;5.87;100.00;96614.34;5030509;28;106035;-63
2022/04/30 03:13:32;;;;;;;8.40;7.70;;;;;;;5.91;100.00;96612.91;5031009;28;102308;-63
2022/04/30 03:21:41;;;;;;;8.60;7.40;;;;;;;5.94;100.00;96603.75;5032394;27;101945;-63
2022/04/30 03:21:44;;;;;;;9.17;8.33;;;;;;;6.10;100.00;96595.25;5069637;27;101776;-63
2022/04/30 03:24:13;;;;;;;9.50;8.40;;;;;;;6.05;100.00;96587.19;5053775;27;106591;-63
2022/04/30 03:26:40;;;;;;;8.93;8.07;;;;;;;5.92;100.00;96587.28;5054408;27;101916;-63
2022/04/30 03:29:07;;;;;;;8.43;7.63;;;;;;;5.82;100.00;96589.59;5054358;27;105280;-63
2022/04/30 03:31:38;;;;;;;8.30;7.50;;;;;;;5.64;100.00;96590.34;5053560;27;105571;-63
2022/04/30 03:34:05;;;;;;;8.93;8.03;;;;;;;5.75;100.00;96580.91;5054155;27;102190;-63
2022/04/30 03:36:33;;;;;;;8.73;7.90;;;;;;;5.82;100.00;96585.16;5054117;27;105212;-63
2022/04/30 03:39:00;;;;;;;8.70;7.73;;;;;;;5.90;100.00;96584.88;5053682;27;105405;-63
2022/04/30 03:41:28;;;;;;;8.33;7.53;;;;;;;5.76;100.00;96585.16;5054223;27;101916;-63
2022/04/30 03:43:55;;;;;;;8.67;7.97;;;;;;;5.79;100.00;96582.91;5057105;27;105178;-63
2022/04/30 03:46:23;;;;;;;10.37;8.53;;;;;;;5.78;100.00;96591.06;5036881;27;101881;-62
2022/04/30 03:48:53;;;;;;;9.30;8.50;;;;;;;5.88;100.00;96594.03;5053968;27;105754;-63
2022/04/30 03:51:21;;;;;;;10.07;9.17;;;;;;;5.93;100.00;96594.19;5053720;27;105821;-63
2022/04/30 03:53:49;;;;;;;8.83;7.93;;;;;;;5.86;100.00;96591.63;5072324;27;101882;-63
2022/04/30 03:56:17;;;;;;;9.67;8.77;;;;;;;5.94;100.00;96595.81;5053924;27;103880;-63
2022/04/30 03:58:46;;;;;;;9.20;8.40;;;;;;;6.03;100.00;96592.69;5053118;27;105675;-63
2022/04/30 04:01:15;;;;;;;8.93;8.03;;;;;;;5.92;100.00;96582.00;5072242;27;101792;-62
2022/04/30 04:03:43;;;;;;;8.33;7.63;;;;;;;6.04;100.00;96582.91;5070548;27;105282;-62
2022/04/30 04:06:13;;;;;;;8.73;7.90;;;;;;;6.11;100.00;96586.31;5074964;27;103102;-63
2022/04/30 04:08:41;;;;;;;7.63;7.03;;;;;;;5.84;100.00;96585.72;5072370;27;101942;-63
2022/04/30 04:11:10;;;;;;;7.83;7.13;;;;;;;5.82;100.00;96586.97;5052961;27;106040;-62
2022/04/30 04:19:07;;;;;;;8.77;7.97;;;;;;;5.92;100.00;96584.66;5052753;27;105722;-63
2022/04/30 04:21:37;;;;;;;8.23;7.43;;;;;;;5.97;100.00;96580.34;5033320;27;102319;-63
2022/04/30 04:26:50;;;;;;;9.50;8.60;;;;;;;6.17;100.00;96591.53;5028927;28;105614;-62
2022/04/30 04:29:17;;;;;;;9.20;8.40;;;;;;;6.08;100.00;96597.31;5034470;27;101800;-63
2022/04/30 04:31:44;;;;;;;8.90;8.10;;;;;;;6.12;100.00;96590.56;5030434;28;103166;-63
2022/04/30 04:34:12;;;;;;;8.20;7.40;;;;;;;6.08;100.00;96592.03;5029978;28;101838;-63
2022/04/30 04:36:42;;;;;;;8.80;8.00;;;;;;;6.21;100.00;96591.91;5029875;28;104233;-62
2022/04/30 04:39:12;;;;;;;9.07;8.27;;;;;;;6.28;100.00;96597.94;5028995;28;105865;-62
2022/04/30 04:41:41;;;;;;;8.77;7.97;;;;;;;6.19;100.00;96604.50;5029535;28;101894;-62
2022/04/30 04:44:08;;;;;;;9.53;8.63;;;;;;;6.19;100.00;96609.78;5029549;28;105286;-62
2022/04/30 04:46:36;;;;;;;9.30;8.40;;;;;;;6.12;100.00;96603.78;5028774;28;105757;-63
2022/04/30 04:49:04;;;;;;;8.83;8.03;;;;;;;6.31;100.00;96602.75;5029226;28;101824;-63
2022/04/30 04:51:31;;;;;;;9.50;8.60;;;;;;;6.44;100.00;96605.28;5032372;28;105180;-63
2022/04/30 04:54:01;;;;;;;12.83;11.33;;;;;;;6.53;100.00;96614.53;5029520;28;102065;-63
2022/04/30 04:56:29;;;;;;;15.80;12.20;;;;;;;6.47;100.00;96610.94;5029317;27;103844;-62
2022/04/30 04:58:57;;;;;;;12.03;10.73;;;;;;;6.60;100.00;96617.91;5029095;28;102772;-62
2022/04/30 05:01:25;;;;;;;11.60;10.40;;;;;;;6.63;100.00;96617.47;5029767;27;102153;-63
2022/04/30 05:03:53;;;;;;;11.00;10.00;;;;;;;6.78;100.00;96609.97;5028225;28;104244;-63
2022/04/30 05:06:20;;;;;;;11.00;10.00;;;;;;;6.96;100.00;96615.25;5027527;28;105368;-63
2022/04/30 05:08:47;;;;;;;12.17;10.77;;;;;;;6.94;100.00;96614.69;5028147;28;101908;-63
2022/04/30 05:11:17;;;;;;;12.20;11.03;;;;;;;6.90;100.00;96616.97;5028325;28;104071;-63
2022/04/30 05:13:44;;;;;;;11.97;10.87;;;;;;;7.01;100.00;96626.78;5030688;28;101823;-63
2022/04/30 05:16:11;;;;;;;12.40;11.00;;;;;;;7.01;100.00;96632.06;5027102;27;105574;-63
2022/04/30 05:18:40;;;;;;;11.97;10.70;;;;;;;7.11;100.00;96636.84;5028748;28;102797;-63
2022/04/30 05:21:08;;;;;;;12.23;11.03;;;;;;;7.16;100.00;96634.34;5027412;27;102506;-63
2022/04/30 05:23:36;;;;;;;13.03;10.83;;;;;;;7.15;100.00;96638.78;5028022;28;105470;-63
2022/04/30 05:26:04;;;;;;;12.40;11.30;;;;;;;7.16;100.00;96639.63;5027394;28;105650;-62
2022/04/30 05:28:34;;;;;;;13.07;11.77;;;;;;;6.99;100.00;96633.31;5027931;28;101985;-62
2022/04/30 05:31:01;;;;;;;12.43;11.13;;;;;;;7.13;100.00;96642.69;5027947;28;105460;-63
2022/04/30 05:33:29;;;;;;;12.20;11.00;;;;;;;7.45;100.00;96636.16;5030827;28;105557;-63
2022/04/30 05:35:57;;;;;;;12.60;11.40;;;;;;;7.64;100.00;96632.44;5027833;28;105399;-63
2022/04/30 05:38:25;;;;;;;13.90;11.30;;;;;;;7.79;100.00;96636.28;5027193;28;105771;-63
2022/04/30 05:40:54;;;;;;;12.43;11.27;;;;;;;7.94;100.00;96638.50;5028039;28;102637;-65
2022/04/30 05:43:21;;;;;;;12.70;11.40;;;;;;;8.11;100.00;96634.13;5026092;27;105027;-65
2022/04/30 05:45:50;;;;;;;12.40;11.23;;;;;;;8.29;100.00;96636.75;5027026;28;105359;-65
2022/04/30 05:48:18;;;;;;;11.47;10.37;;;;;;;8.45;100.00;96633.41;5027592;28;102227;-62
2022/04/30 05:50:46;;;;;;;11.13;10.03;;;;;;;8.73;100.00;96638.81;5027473;28;105393;-62
2022/04/30 05:53:13;;;;;;;11.20;10.10;;;;;;;8.78;100.00;96638.91;5028396;27;103049;-63
2022/04/30 05:55:41;;;;;;;10.73;9.73;;;;;;;9.24;100.00;96634.31;5030973;28;101917;-62
2022/04/30 05:58:09;;;;;;;10.23;9.33;;;;;;;9.31;100.00;96639.47;5027665;28;105626;-62
2022/04/30 06:00:37;;;;;;;9.70;8.23;;;;;;;9.01;100.00;96642.34;5029904;28;102082;-62
2022/04/30 06:03:06;;;;;;;9.57;8.53;;;;;;;8.85;100.00;96635.09;5028540;28;105339;-62
2022/04/30 06:05:34;;;;;;;10.90;8.20;;;;;;;9.06;100.00;96631.00;5028815;27;103183;-63
2022/04/30 06:08:01;;;;;;;9.43;7.77;;;;;;;9.05;100.00;96632.84;5028515;28;101900;-62
2022/04/30 06:10:30;;;;;;;9.93;8.23;;;;;;;9.16;100.00;96639.19;5028410;28;106406;-66
2022/04/30 06:12:57;;;;;;;9.80;8.47;;;;;;;9.10;100.00;96637.47;5027184;28;104263;-66
2022/04/30 06:15:25;;;;;;;9.87;7.97;;;;;;;9.30;100.00;96645.81;5029703;27;102314;-66
2022/04/30 06:17:52;;;;;;;9.17;8.03;;;;;;;9.31;100.00;96640.28;5030887;28;105167;-66
2022/04/30 06:20:22;;;;;;;9.33;8.43;;;;;;;9.40;100.00;96646.84;5027952;27;101928;-66
2022/04/30 06:22:49;;;;;;;9.47;8.57;;;;;;;9.17;100.00;96648.75;5028167;28;105498;-66
2022/04/30 06:25:17;;;;;;;8.77;7.87;;;;;;;9.33;100.00;96650.66;5027728;28;105623;-66
2022/04/30 06:27:45;;;;;;;9.27;8.37;;;;;;;9.87;100.00;96650.88;5030291;28;101870;-66
2022/04/30 06:30:13;;;;;;;9.03;8.00;;;;;;;10.14;100.00;96651.13;5031677;28;105350;-66
2022/04/30 06:32:40;;;;;;;8.47;7.77;;;;;;;10.17;100.00;96653.28;5031053;28;105448;-66
2022/04/30 06:35:08;;;;;;;9.67;8.87;;;;;;;10.44;100.00;96652.41;5032924;27;101880;-66
2022/04/30 06:37:37;;;;;;;10.83;8.90;;;;;;;10.63;100.00;96645.75;5031607;28;105369;-66
2022/04/30 06:40:06;;;;;;;9.73;8.13;;;;;;;11.04;100.00;96649.78;5035447;28;102744;-66
2022/04/30 06:42:40;;;;;;;9.13;8.20;;;;;;;11.39;100.00;96648.34;5031470;28;105283;-66
2022/04/30 06:45:10;;;;;;;9.10;8.23;;;;;;;11.73;100.00;96652.50;5030943;28;105347;-66
2022/04/30 06:47:38;;;;;;;9.33;8.47;;;;;;;11.94;100.00;96648.19;5031467;28;101769;-66
2022/04/30 06:50:06;;;;;;;9.03;8.13;;;;;;;12.03;100.00;96638.66;5031168;28;105398;-66
2022/04/30 06:52:34;;;;;;;9.80;8.87;;;;;;;12.24;100.00;96643.13;5030679;28;105714;-66
2022/04/30 06:57:48;;;;;;;10.47;9.00;;;;;;;12.46;100.00;96633.16;5031274;28;105227;-66
2022/04/30 07:03:03;;;;;;;10.40;9.40;;;;;;;12.45;100.00;96640.38;5034784;28;101855;-68
2022/04/30 07:05:31;;;;;;;8.03;7.33;;;;;;;12.52;100.00;96638.28;5030387;28;105330;-68
2022/04/30 07:07:59;;;;;;;8.20;7.33;;;;;;;12.24;100.00;96654.59;5032450;28;101906;-70
2022/04/30 07:10:28;;;;;;;7.60;6.90;;;;;;;12.17;100.00;96646.00;5032245;28;102553;-68
2022/04/30 07:12:55;;;;;;;8.33;6.90;;;;;;;12.22;100.00;96645.25;5030485;28;105469;-68
2022/04/30 07:15:22;;;;;;;8.27;7.17;;;;;;;12.47;100.00;96651.56;5030862;28;102066;-68
2022/04/30 07:17:49;;;;;;;9.63;7.50;;;;;;;12.99;100.00;96641.00;5030909;28;105495;-68
2022/04/30 07:20:18;;;;;;;7.50;6.80;;;;;;;12.94;100.00;96643.59;5029635;27;105691;-68
2022/04/30 07:22:45;;;;;;;8.50;6.60;;;;;;;13.22;100.00;96648.59;5034485;28;102222;-68
2022/04/30 07:25:12;;;;;;;7.63;6.80;;;;;;;13.34;100.00;96651.84;5030272;28;105539;-68
2022/04/30 07:27:41;;;;;;;7.60;6.83;;;;;;;13.59;100.00;96642.06;5030686;28;102077;-68
2022/04/30 07:30:09;;;;;;;8.40;6.47;;;;;;;13.64;100.00;96628.72;5030459;28;104789;-67
2022/04/30 07:32:36;;;;;;;7.47;6.73;;;;;;;13.81;100.00;96620.47;5030072;28;106755;-68
2022/04/30 07:35:03;;;;;;;9.10;7.23;;;;;;;13.47;100.00;96619.31;5030564;28;101884;-68
2022/04/30 07:37:30;;;;;;;8.77;6.83;;;;;;;13.46;100.00;96609.69;5047751;27;105758;-68
2022/04/30 07:39:57;;;;;;;8.57;6.90;;;;;;;13.45;100.00;96611.56;5029481;28;105626;-68
2022/04/30 07:42:23;;;;;;;8.00;7.27;;;;;;;13.40;100.00;96618.75;5030618;28;102137;-68
2022/04/30 07:44:52;;;;;;;7.80;7.00;;;;;;;13.63;100.00;96618.28;5033229;28;104972;-67
2022/04/30 07:47:20;;;;;;;8.90;8.00;;;;;;;13.64;100.00;96619.91;5030561;28;101869;-68
2022/04/30 07:49:47;;;;;;;9.10;7.17;;;;;;;14.04;100.00;96614.59;5030416;28;104212;-68
2022/04/30 07:52:14;;;;;;;7.70;7.00;;;;;;;14.28;100.00;96621.09;5029542;28;105861;-68
2022/04/30 07:54:42;;;;;;;7.67;6.87;;;;;;;14.47;100.00;96622.13;5030430;28;101905;-68
2022/04/30 07:57:10;;;;;;;7.60;6.90;;;;;;;14.63;100.00;96618.38;5031658;27;102939;-68
2022/04/30 07:59:37;;;;;;;8.00;7.30;;;;;;;14.92;100.00;96624.75;5029795;28;105773;-68
2022/04/30 08:02:07;;;;;;;7.90;7.13;;;;;;;15.05;100.00;96629.53;5030488;28;102045;-67
2022/04/30 08:04:34;;;;;;;6.90;6.27;;;;;;;15.17;100.00;96622.00;5030318;28;105667;-67
2022/04/30 08:07:00;;;;;;;7.37;6.70;;;;;;;15.15;100.00;96616.13;5032852;28;105697;-68
2022/04/30 08:09:28;;;;;;;6.60;5.80;;;;;;;15.86;100.00;96617.41;5030132;28;106308;-68
2022/04/30 08:11:55;;;;;;;7.17;6.47;;;;;;;15.45;100.00;96622.19;5029632;28;105726;-67
2022/04/30 08:14:22;;;;;;;7.47;6.63;;;;;;;15.26;100.00;96623.06;5030265;28;101923;-67
2022/04/30 08:16:49;;;;;;;6.70;6.20;;;;;;;15.63;100.00;96612.72;5030221;28;105346;-67
2022/04/30 08:19:18;;;;;;;6.73;6.13;;;;;;;15.13;100.00;96619.06;5028888;28;105402;-67
2022/04/30 08:21:46;;;;;;;7.23;6.53;;;;;;;15.33;100.00;96621.72;5030026;27;101935;-68
2022/04/30 08:24:13;;;;;;;7.50;5.90;;;;;;;15.85;100.00;96631.88;5030137;28;104145;-67
2022/04/30 08:26:41;;;;;;;8.37;6.40;;;;;;;15.90;100.00;96619.25;5029110;28;104570;-68
2022/04/30 08:29:08;;;;;;;7.17;6.47;;;;;;;15.87;100.00;96613.66;5033507;28;101924;-68
2022/04/30 08:31:35;;;;;;;8.13;6.60;;;;;;;15.85;100.00;96621.16;5028919;28;105352;-67
2022/04/30 08:34:03;;;;;;;7.33;6.73;;;;;;;15.92;100.00;96619.00;5029843;28;101964;-67
2022/04/30 08:36:31;;;;;;;9.07;6.50;;;;;;;15.93;100.00;96617.91;5031089;28;102629;-67
2022/04/30 08:38:58;;;;;;;8.83;6.77;;;;;;;16.17;97.57;96618.78;5029136;28;105128;-67
2022/04/30 08:41:25;;;;;;;6.90;6.03;;;;;;;15.82;98.73;96629.78;5029701;28;101830;-67
2022/04/30 08:43:52;;;;;;;7.87;7.17;;;;;;;15.86;95.93;96620.88;5029730;28;105760;-67
2022/04/30 08:46:20;;;;;;;7.47;6.77;;;;;;;16.07;92.92;96629.63;5028899;28;105954;-68
2022/04/30 08:48:48;;;;;;;7.13;6.43;;;;;;;15.93;99.20;96629.44;5029829;28;101949;-68
2022/04/30 08:51:16;;;;;;;7.17;6.47;;;;;;;16.23;98.00;96628.41;5031246;28;105843;-68
2022/04/30 08:53:46;;;;;;;6.97;6.37;;;;;;;16.27;97.06;96629.47;5029609;28;101786;-67
2022/04/30 08:56:13;;;;;;;8.20;6.60;;;;;;;16.27;97.04;96624.09;5029687;28;105524;-67
2022/04/30 08:58:41;;;;;;;6.90;6.27;;;;;;;16.35;94.63;96621.63;5028811;28;105166;-67
2022/04/30 09:01:10;;;;;;;8.03;6.50;;;;;;;15.99;98.18;96627.53;5029403;28;101967;-67
2022/04/30 09:03:39;;;;;;;6.93;6.23;;;;;;;16.15;98.54;96616.41;5031037;27;102929;-68
2022/04/30 09:06:07;;;;;;;7.37;6.77;;;;;;;16.18;96.19;96625.78;5028216;28;105793;-67
2022/04/30 09:08:35;;;;;;;7.60;6.63;;;;;;;16.26;95.47;96622.50;5029392;28;102039;-67
2022/04/30 09:11:11;;;;;;;6.90;6.30;;;;;;;16.90;92.63;96617.66;5028906;28;104970;-67
2022/04/30 09:13:46;;;;;;;7.07;6.40;;;;;;;16.49;94.53;96611.88;5031862;28;105876;-67
2022/04/30 09:16:20;;;;;;;7.53;6.73;;;;;;;16.41;88.85;96614.38;5029039;28;104609;-67
2022/04/30 09:18:48;;;;;;;7.23;6.50;;;;;;;16.58;89.90;96609.38;5030086;28;102897;-68
2022/04/30 09:21:17;;;;;;;7.00;6.33;;;;;;;16.87;89.66;96612.84;5028240;27;102055;-67
2022/04/30 09:23:45;;;;;;;7.60;7.00;;;;;;;16.18;93.12;96612.38;5030146;28;102511;-67
2022/04/30 09:26:14;;;;;;;7.87;7.10;;;;;;;16.52;92.47;96618.56;5029553;28;102948;-67
2022/04/30 09:28:42;;;;;;;7.13;6.53;;;;;;;16.47;93.10;96613.25;5029056;28;102067;-67
2022/04/30 09:31:11;;;;;;;7.63;6.93;;;;;;;16.51;92.43;96622.34;5028862;28;105745;-68
2022/04/30 09:33:45;;;;;;;7.53;6.87;;;;;;;16.43;90.89;96609.50;5031821;28;106876;-67
2022/04/30 09:38:56;;;;;;;7.37;6.73;;;;;;;15.97;98.23;96621.66;5028295;28;105727;-67
2022/04/30 09:41:27;;;;;;;8.13;7.43;;;;;;;16.43;93.66;96609.50;5028961;28;101963;-67
2022/04/30 09:44:12;;;;;;;7.30;6.70;;;;;;;16.32;96.24;96603.41;5028581;28;104764;-68
2022/04/30 09:46:41;;;;;;;7.47;6.77;;;;;;;16.39;91.68;96608.47;5028135;28;105574;-67
2022/04/30 09:54:43;;;;;;;7.37;6.63;;;;;;;16.87;84.79;96605.59;5027982;28;105436;-67
2022/04/30 09:57:15;;;;;;;8.40;7.60;;;;;;;16.61;82.40;96598.06;5031878;28;102188;-68
2022/04/30 09:59:44;;;;;;;7.80;7.10;;;;;;;16.80;85.07;96597.09;5028137;28;105540;-67
2022/04/30 10:02:14;;;;;;;8.07;7.27;;;;;;;16.75;87.66;96602.50;5030339;28;101836;-67
2022/04/30 10:04:45;;;;;;;7.10;6.50;;;;;;;17.16;87.06;96600.19;5032309;28;105637;-67
2022/04/30 10:07:13;;;;;;;7.50;6.80;;;;;;;16.93;87.77;96606.34;5031779;28;105753;-67
2022/04/30 10:09:47;;;;;;;7.97;7.27;;;;;;;16.59;90.03;96603.72;5032135;28;102069;-67
2022/04/30 10:12:23;;;;;;;7.00;6.40;;;;;;;16.95;90.26;96604.19;5031931;28;105535;-67
2022/04/30 10:14:58;;;;;;;7.30;6.70;;;;;;;16.53;93.36;96598.69;5031484;28;105858;-67
2022/04/30 10:17:27;;;;;;;8.03;7.23;;;;;;;16.53;92.56;96596.00;5032015;28;102082;-67
2022/04/30 10:19:59;;;;;;;6.90;6.30;;;;;;;16.72;92.82;96599.56;5038978;27;105308;-67
2022/04/30 10:22:27;;;;;;;8.53;6.87;;;;;;;16.77;90.88;96603.00;5072606;27;101933;-68
2022/04/30 10:24:56;;;;;;;8.77;6.97;;;;;;;15.92;95.35;96602.91;5055493;27;105459;-67
2022/04/30 10:27:26;;;;;;;7.47;6.67;;;;;;;16.45;92.38;96605.47;5071811;27;105313;-67
2022/04/30 10:29:57;;;;;;;8.23;7.53;;;;;;;16.36;92.06;96596.38;5055390;27;101866;-68
2022/04/30 10:32:29;;;;;;;7.57;6.87;;;;;;;16.43;92.83;96598.78;5054997;27;105191;-67
2022/04/30 10:34:57;;;;;;;8.43;7.73;;;;;;;16.19;92.74;96605.94;5054701;27;104622;-67
2022/04/30 10:37:29;;;;;;;7.40;6.57;;;;;;;16.24;95.62;96609.34;5055016;27;101970;-67
2022/04/30 10:40:00;;;;;;;8.27;7.37;;;;;;;16.41;95.67;96603.63;5072511;27;104332;-67
2022/04/30 10:42:41;;;;;;;9.07;8.10;;;;;;;16.01;95.45;96609.25;5058002;27;105787;-67
2022/04/30 10:45:12;;;;;;;8.63;7.93;;;;;;;15.91;95.95;96614.72;5054997;27;105175;-67
2022/04/30 10:47:50;;;;;;;9.93;8.03;;;;;;;15.85;93.25;96611.25;5071334;27;105865;-67
2022/04/30 10:50:17;;;;;;;9.23;8.33;;;;;;;15.84;94.70;96609.66;5055049;27;102170;-67
2022/04/30 10:52:48;;;;;;;10.63;8.63;;;;;;;15.83;95.40;96613.41;5055097;27;105191;-67
2022/04/30 10:55:16;;;;;;;9.73;8.87;;;;;;;15.61;94.82;96614.88;5053971;27;106278;-67
2022/04/30 10:57:46;;;;;;;9.73;8.83;;;;;;;15.48;93.52;96613.59;5054782;27;101961;-67
2022/04/30 11:00:15;;;;;;;10.50;9.27;;;;;;;15.76;87.84;96618.25;5073367;27;102879;-68
2022/04/30 11:02:43;;;;;;;11.13;9.43;;;;;;;15.49;85.98;96615.19;5054136;27;105530;-68
2022/04/30 11:05:19;;;;;;;10.50;9.00;;;;;;;15.59;84.14;96609.00;5076810;27;101877;-68
2022/04/30 11:07:47;;;;;;;11.10;10.00;;;;;;;15.60;81.66;96610.59;5054403;27;105250;-67
2022/04/30 11:10:15;;;;;;;10.60;9.67;;;;;;;15.68;81.13;96607.31;5053439;27;102007;-68
2022/04/30 11:12:45;;;;;;;10.87;9.87;;;;;;;15.78;77.37;96602.72;5054177;27;104261;-68
2022/04/30 11:15:15;;;;;;;11.33;10.23;;;;;;;15.42;81.25;96597.81;5053772;27;105408;-67
2022/04/30 11:17:47;;;;;;;11.37;10.27;;;;;;;15.29;82.98;96606.41;5053536;27;101832;-67
2022/04/30 11:20:22;;;;;;;11.13;10.03;;;;;;;15.52;85.81;96601.25;5052768;27;106752;-68
2022/04/30 11:22:53;;;;;;;11.93;10.73;;;;;;;15.34;81.34;96609.09;5052965;27;106302;-68
2022/04/30 11:25:20;;;;;;;11.73;10.53;;;;;;;15.27;84.09;96604.00;5053420;27;101938;-68
2022/04/30 11:27:49;;;;;;;12.70;10.80;;;;;;;15.44;86.61;96598.34;5074442;27;102566;-68
2022/04/30 11:30:20;;;;;;;11.93;10.63;;;;;;;15.43;87.33;96615.50;5053333;27;101752;-68
2022/04/30 11:32:49;;;;;;;12.27;10.97;;;;;;;15.28;89.18;96607.50;5070242;27;105363;-68
2022/04/30 11:35:17;;;;;;;12.00;10.90;;;;;;;15.06;89.12;96602.50;5069891;27;105908;-67
2022/04/30 11:37:45;;;;;;;13.53;11.50;;;;;;;15.03;90.92;96616.41;5071920;27;101786;-68
2022/04/30 11:40:12;;;;;;;12.97;11.77;;;;;;;14.96;92.13;96599.03;5053231;27;105329;-68
2022/04/30 11:42:40;;;;;;;12.23;10.90;;;;;;;15.00;96.29;96616.16;5071357;27;102608;-68
2022/04/30 11:45:11;;;;;;;12.40;11.30;;;;;;;14.95;97.20;96621.53;5053188;27;101961;-67
2022/04/30 11:47:37;;;;;;;11.93;10.80;;;;;;;14.98;98.06;96621.78;5056243;27;104341;-68
2022/04/30 11:50:06;;;;;;;15.00;10.90;;;;;;;15.19;96.15;96619.84;5052911;27;101938;-68
2022/04/30 11:52:34;;;;;;;11.93;10.80;;;;;;;15.10;99.11;96629.53;5053194;27;105163;-68
2022/04/30 11:55:03;;;;;;;11.03;10.07;;;;;;;15.01;98.82;96631.97;5070933;27;102882;-68
2022/04/30 11:57:30;;;;;;;10.70;9.60;;;;;;;14.90;95.62;96634.94;5053010;27;101872;-68
2022/04/30 11:59:58;;;;;;;12.17;11.00;;;;;;;14.89;97.73;96627.97;5053716;27;105386;-68
2022/04/30 12:02:30;;;;;;;11.47;10.27;;;;;;;14.85;98.45;96625.03;5052407;27;105491;-68